createdAt,value
2019-02-05T00:03:53.963Z,47.40
2019-02-05T00:08:58.337Z,49.13
2019-02-05T00:14:00.065Z,41.28
2019-02-05T00:19:01.901Z,48.15
2019-02-05T00:24:04.149Z,47.38
2019-02-05T00:29:05.908Z,53.50
2019-02-05T00:34:09.626Z,48.55
2019-02-05T00:39:11.291Z,50.73
2019-02-05T00:44:12.623Z,52.38
2019-02-05T00:49:13.964Z,52.33
2019-02-05T00:54:15.867Z,56.63
2019-02-05T00:59:17.739Z,52.00
2019-02-05T01:04:19.133Z,55.20
2019-02-05T01:09:20.620Z,53.15
2019-02-05T01:14:22.512Z,61.77
2019-02-05T01:19:24.119Z,53.13
2019-02-05T01:24:25.455Z,57.15
2019-02-05T01:29:27.652Z,58.85
2019-02-05T01:34:29.060Z,58.45
2019-02-05T01:39:30.827Z,57.67
2019-02-05T01:44:32.125Z,61.60
2019-02-05T01:49:36.816Z,59.63
2019-02-05T01:54:38.227Z,59.67
2019-02-05T01:59:40.698Z,61.23
2019-02-05T02:04:42.038Z,55.60
2019-02-05T02:09:43.527Z,67.87
2019-02-05T02:14:45.652Z,71.07
2019-02-05T02:19:47.405Z,63.15
2019-02-05T02:24:48.717Z,67.67
2019-02-05T02:29:50.052Z,67.05
2019-02-05T02:34:51.371Z,69.35
2019-02-05T02:39:55.258Z,68.87
2019-02-05T02:44:58.590Z,70.57
2019-02-05T02:49:59.983Z,69.97
2019-02-05T02:55:01.370Z,71.90
2019-02-05T03:00:08.056Z,73.47
2019-02-05T03:05:12.788Z,68.87
2019-02-05T03:10:23.783Z,70.35
2019-02-05T03:15:25.292Z,70.10
2019-02-05T03:20:26.574Z,77.60
2019-02-05T03:25:29.706Z,76.47
2019-02-05T03:30:31.203Z,74.37
2019-02-05T03:35:32.712Z,82.00
2019-02-05T03:40:57.846Z,76.97
2019-02-05T03:45:59.475Z,78.05
2019-02-05T03:56:21.693Z,84.95
2019-02-05T04:01:51.862Z,84.22
2019-02-05T04:07:32.545Z,83.45
2019-02-05T04:13:22.697Z,85.60
2019-02-05T04:18:51.035Z,82.10
2019-02-05T04:24:07.271Z,89.52
2019-02-05T04:29:37.440Z,85.75
2019-02-05T04:35:12.150Z,78.42
2019-02-05T04:40:31.933Z,96.70
2019-02-05T04:45:56.699Z,87.50
2019-02-05T04:51:18.422Z,95.77
2019-02-05T04:56:40.782Z,97.08
2019-02-05T05:01:47.899Z,98.07
2019-02-05T05:07:35.584Z,96.00
2019-02-05T05:12:39.514Z,94.42
2019-02-05T05:17:42.758Z,96.60
2019-02-05T05:22:44.398Z,100.00
2019-02-05T05:27:45.665Z,104.00
2019-02-05T05:33:05.596Z,91.45
2019-02-05T05:38:07.010Z,97.95
2019-02-05T05:43:08.488Z,100.85
2019-02-05T05:48:10.056Z,107.05
2019-02-05T05:53:11.388Z,106.60
2019-02-05T05:58:22.281Z,111.95
2019-02-05T06:03:22.881Z,103.10
2019-02-05T06:08:24.201Z,113.22
2019-02-05T06:13:25.603Z,111.47
2019-02-05T06:18:27.521Z,123.07
2019-02-05T06:23:28.948Z,113.03
2019-02-05T06:28:34.654Z,134.10
2019-02-05T06:33:33.596Z,138.82
2019-02-05T06:38:35.744Z,135.80
2019-02-05T06:43:37.118Z,129.68
2019-02-05T06:48:38.514Z,136.72
2019-02-05T06:53:39.906Z,145.68
2019-02-05T06:58:46.632Z,154.63
2019-02-05T07:03:44.440Z,156.07
2019-02-05T07:08:45.910Z,149.77
2019-02-05T07:13:47.428Z,154.50
2019-02-05T07:18:49.252Z,159.32
2019-02-05T07:23:51.521Z,156.55
2019-02-05T07:29:00.011Z,161.85
2019-02-05T07:33:56.674Z,157.90
2019-02-05T07:38:58.986Z,167.25
2019-02-05T07:44:02.036Z,176.97
2019-02-05T07:49:03.512Z,155.67
2019-02-05T07:54:23.433Z,167.75
2019-02-05T07:59:25.242Z,152.38
2019-02-05T08:04:26.584Z,164.85
2019-02-05T08:09:28.013Z,175.03
2019-02-05T08:14:31.240Z,163.32
2019-02-05T08:19:36.085Z,164.52
2019-02-05T08:24:37.469Z,173.22
2019-02-05T08:29:39.279Z,174.95
2019-02-05T08:34:43.970Z,168.13
2019-02-05T08:39:48.187Z,175.70
2019-02-05T08:44:49.573Z,150.75
2019-02-05T08:49:50.982Z,157.22
2019-02-05T08:54:52.718Z,189.22
2019-02-05T08:59:55.918Z,160.95
2019-02-05T09:04:57.977Z,165.77
2019-02-05T09:10:03.328Z,161.05
2019-02-05T09:15:29.516Z,161.75
2019-02-05T09:20:29.098Z,164.80
2019-02-05T09:25:34.477Z,156.87
2019-02-05T09:30:35.965Z,144.90
2019-02-05T09:35:38.361Z,158.57
2019-02-05T09:40:39.898Z,153.45
2019-02-05T09:45:41.304Z,155.87
2019-02-05T09:50:45.002Z,149.90
2019-02-05T09:55:47.562Z,139.72
2019-02-05T10:00:51.926Z,157.27
2019-02-05T10:05:53.355Z,144.55
2019-02-05T10:10:57.798Z,147.98
2019-02-05T10:16:00.294Z,134.18
2019-02-05T10:21:03.102Z,142.30
2019-02-05T10:26:06.277Z,155.48
2019-02-05T10:31:07.856Z,149.45
2019-02-05T10:36:10.280Z,137.52
2019-02-05T10:41:11.926Z,126.50
2019-02-05T10:46:15.561Z,129.40
2019-02-05T10:51:20.473Z,132.78
2019-02-05T10:56:24.142Z,130.40
2019-02-05T11:01:26.103Z,126.65
2019-02-05T11:06:27.648Z,130.80
2019-02-05T11:11:29.479Z,117.70
2019-02-05T11:16:30.958Z,138.50
2019-02-05T11:21:32.428Z,145.87
2019-02-05T11:26:36.886Z,138.65
2019-02-05T11:31:39.162Z,135.37
2019-02-05T11:36:40.672Z,141.90
2019-02-05T11:41:42.174Z,137.32
2019-02-05T11:46:46.785Z,143.13
2019-02-05T11:51:52.118Z,142.68
2019-02-05T11:56:54.495Z,133.82
2019-02-05T12:01:59.049Z,146.05
2019-02-05T12:07:00.934Z,137.80
2019-02-05T12:12:02.552Z,131.47
2019-02-05T12:17:06.722Z,134.03
2019-02-05T12:22:08.733Z,123.42
2019-02-05T12:27:10.268Z,119.35
2019-02-05T12:32:12.043Z,122.58
2019-02-05T12:37:13.364Z,113.37
2019-02-05T12:42:14.719Z,108.50
2019-02-05T12:47:16.501Z,109.15
2019-02-05T12:52:18.054Z,109.65
2019-02-05T12:57:25.126Z,112.10
2019-02-05T13:02:30.523Z,97.57
2019-02-05T13:07:33.676Z,103.83
2019-02-05T13:12:35.050Z,99.13
2019-02-05T13:17:39.987Z,104.00
2019-02-05T13:22:42.048Z,89.37
2019-02-05T13:27:43.552Z,82.82
2019-02-05T13:32:45.317Z,84.62
2019-02-05T13:37:47.546Z,67.47
2019-02-05T13:42:49.030Z,67.72
2019-02-05T13:47:50.430Z,67.75
2019-02-05T13:52:52.058Z,70.03
2019-02-05T13:57:53.461Z,78.52
2019-02-05T14:02:54.929Z,78.90
2019-02-05T14:07:56.999Z,79.82
2019-02-05T14:12:58.792Z,77.70
2019-02-05T14:18:00.778Z,76.40
2019-02-05T14:23:02.078Z,77.80
2019-02-05T14:28:04.072Z,75.78
2019-02-05T14:33:06.026Z,76.15
2019-02-05T14:38:09.172Z,68.87
2019-02-05T14:43:14.665Z,69.53
2019-02-05T14:48:17.617Z,70.57
2019-02-05T14:53:19.285Z,66.70
2019-02-05T14:58:20.940Z,67.65
2019-02-05T15:03:22.341Z,63.40
2019-02-05T15:08:27.500Z,61.50
2019-02-05T15:13:29.861Z,60.58
2019-02-05T15:18:31.179Z,60.63
2019-02-05T15:23:32.684Z,59.60
2019-02-05T15:28:34.050Z,56.60
2019-02-05T15:33:40.136Z,53.80
2019-02-05T15:38:42.052Z,53.23
2019-02-05T15:43:43.537Z,51.18
2019-02-05T15:48:46.759Z,53.52
2019-02-05T15:53:50.152Z,52.05
2019-02-05T15:58:51.502Z,55.17
2019-02-05T16:03:52.843Z,51.80
2019-02-05T16:08:54.288Z,50.28
2019-02-05T16:13:57.440Z,53.87
2019-02-05T16:18:59.754Z,49.53
2019-02-05T16:24:01.610Z,54.63
2019-02-05T16:29:05.573Z,52.15
2019-02-05T16:34:07.472Z,55.80
2019-02-05T16:39:11.275Z,56.75
2019-02-05T16:44:12.662Z,51.63
2019-02-05T16:49:14.118Z,49.95
2019-02-05T16:54:16.123Z,50.23
2019-02-05T16:59:18.089Z,46.45
2019-02-05T17:04:19.512Z,43.40
2019-02-05T17:09:21.201Z,48.23
2019-02-05T17:14:22.786Z,43.73
2019-02-05T17:19:24.098Z,42.13
2019-02-05T17:24:25.463Z,39.88
2019-02-05T17:29:26.794Z,42.73
2019-02-05T17:34:31.529Z,45.00
2019-02-05T17:39:32.948Z,47.43
2019-02-05T17:44:35.214Z,49.33
2019-02-05T17:49:36.568Z,46.18
2019-02-05T17:54:38.355Z,45.10
2019-02-05T17:59:40.722Z,45.73
2019-02-05T18:04:42.441Z,47.35
2019-02-05T18:09:43.889Z,48.40
2019-02-05T18:14:45.240Z,45.63
2019-02-05T18:19:46.984Z,52.43
2019-02-05T18:24:48.357Z,50.23
2019-02-05T18:29:50.108Z,55.92
2019-02-05T18:34:51.749Z,56.75
2019-02-05T18:39:53.724Z,56.60
2019-02-05T18:44:55.600Z,58.20
2019-02-05T18:49:56.911Z,57.60
2019-02-05T18:55:00.360Z,60.15
2019-02-05T19:00:12.426Z,58.33
2019-02-05T19:05:13.958Z,56.28
2019-02-05T19:10:24.975Z,67.85
2019-02-05T19:15:30.275Z,53.13
2019-02-05T19:20:31.832Z,58.05
2019-02-05T19:25:35.102Z,68.97
2019-02-05T19:30:40.673Z,60.73
2019-02-05T19:35:44.690Z,80.05
2019-02-05T19:40:56.796Z,77.55
2019-02-05T19:46:03.873Z,66.65
2019-02-05T19:51:05.346Z,86.45
2019-02-05T19:56:06.765Z,71.37
2019-02-05T20:01:09.550Z,71.65
2019-02-05T20:06:10.937Z,78.37
2019-02-05T20:11:12.628Z,73.15
2019-02-05T20:16:14.362Z,70.80
2019-02-05T20:21:17.661Z,74.70
2019-02-05T20:26:19.125Z,69.75
2019-02-05T20:31:20.719Z,69.37
2019-02-05T20:36:28.987Z,69.82
2019-02-05T20:41:30.422Z,67.78
2019-02-05T20:46:31.875Z,65.08
2019-02-05T20:51:33.228Z,71.62
2019-02-05T20:56:34.891Z,72.72
2019-02-05T21:01:36.294Z,80.17
2019-02-05T21:06:37.849Z,70.90
2019-02-05T21:11:39.886Z,74.30
2019-02-05T21:16:41.368Z,73.92
2019-02-05T21:21:43.311Z,70.80
2019-02-05T21:26:46.663Z,72.58
2019-02-05T21:31:48.102Z,72.80
2019-02-05T21:36:49.654Z,92.25
2019-02-05T21:41:51.402Z,100.82
2019-02-05T21:46:54.139Z,74.47
2019-02-05T21:51:57.101Z,95.75
2019-02-05T21:56:58.423Z,81.30
2019-02-05T22:01:59.865Z,71.45
2019-02-05T22:07:01.549Z,88.52
2019-02-05T22:12:03.171Z,78.02
2019-02-05T22:17:04.698Z,87.30
2019-02-05T22:22:06.185Z,104.72
2019-02-05T22:27:07.583Z,105.63
2019-02-05T22:32:09.075Z,133.87
2019-02-05T22:37:10.417Z,57.93
2019-02-05T22:42:12.405Z,55.83
2019-02-05T22:47:14.246Z,49.73
2019-02-05T22:52:15.711Z,35.45
2019-02-05T22:57:17.154Z,34.38
2019-02-05T23:02:18.605Z,65.57
2019-02-05T23:07:20.069Z,40.95
2019-02-05T23:12:32.809Z,38.30
2019-02-05T23:17:34.156Z,45.12
2019-02-05T23:22:35.452Z,26.85
2019-02-05T23:27:37.162Z,31.73
2019-02-05T23:32:38.497Z,25.95
2019-02-05T23:37:39.815Z,23.25
2019-02-05T23:42:41.414Z,24.80
2019-02-05T23:47:44.776Z,22.50
2019-02-05T23:52:46.073Z,23.05
2019-02-05T23:57:48.940Z,22.42
